createdAt,value
2023-03-28T00:13:19.668Z,21.338
2023-03-28T00:28:21.305Z,21.47
2023-03-28T00:43:22.952Z,21.503
2023-03-28T00:58:24.583Z,21.265
2023-03-28T01:13:26.210Z,21.048
2023-03-28T01:28:27.956Z,21.076
2023-03-28T01:43:29.605Z,21.26
2023-03-28T01:58:31.245Z,21.061
2023-03-28T02:13:32.896Z,20.951
2023-03-28T02:28:34.556Z,20.828
2023-03-28T02:43:36.178Z,20.924
2023-03-28T02:58:37.847Z,20.902
2023-03-28T03:13:39.496Z,21.339
2023-03-28T03:28:41.139Z,20.776
2023-03-28T03:43:43.866Z,20.603
2023-03-28T03:58:46.374Z,20.848
2023-03-28T04:13:48.051Z,20.627
2023-03-28T04:28:49.737Z,21.023
2023-03-28T04:43:51.439Z,21.172
2023-03-28T04:58:53.108Z,20.948
2023-03-28T05:13:54.743Z,21.576
2023-03-28T05:28:56.375Z,20.761
2023-03-28T05:43:58.051Z,20.534
2023-03-28T05:58:59.729Z,20.77
2023-03-28T06:14:01.380Z,20.79
2023-03-28T06:29:03.016Z,21.376
2023-03-28T06:44:04.664Z,20.172
2023-03-28T06:59:06.339Z,20.199
2023-03-28T07:14:07.994Z,20.883
2023-03-28T07:29:09.655Z,20.353
2023-03-28T07:44:11.291Z,19.897
2023-03-28T07:59:12.927Z,20.068
2023-03-28T08:14:14.566Z,21.091
2023-03-28T08:29:16.171Z,19.929
2023-03-28T08:44:17.814Z,19.883
2023-03-28T08:59:19.485Z,20.718
2023-03-28T09:14:21.137Z,19.838
2023-03-28T09:29:22.829Z,19.751
2023-03-28T09:44:24.565Z,20.531
2023-03-28T09:59:27.819Z,19.812
2023-03-28T10:14:30.262Z,19.745
2023-03-28T10:29:32.046Z,20.082
2023-03-28T10:44:33.713Z,19.401
2023-03-28T10:59:35.358Z,20.043
2023-03-28T11:14:37.090Z,19.632
2023-03-28T11:29:43.589Z,19.568
2023-03-28T11:44:45.901Z,19.958
2023-03-28T11:59:47.768Z,19.548
2023-03-28T12:14:49.440Z,19.467
2023-03-28T12:29:51.102Z,19.965
2023-03-28T12:44:52.749Z,19.389
2023-03-28T12:59:54.410Z,19.615
2023-03-28T13:14:56.066Z,19.249
2023-03-28T13:29:57.708Z,19.515
2023-03-28T13:44:59.361Z,19.653
2023-03-28T14:00:01.094Z,19.352
2023-03-28T14:15:02.780Z,19.514
2023-03-28T14:30:04.499Z,19.061
2023-03-28T14:45:06.157Z,19.161
2023-03-28T15:00:07.803Z,19.125
2023-03-28T15:15:09.449Z,19.34
2023-03-28T15:30:11.112Z,19.408
2023-03-28T15:45:12.762Z,18.981
2023-03-28T16:00:14.437Z,18.983
2023-03-28T16:15:16.115Z,19.433
2023-03-28T16:30:17.797Z,18.976
2023-03-28T16:45:19.449Z,19.093
2023-03-28T17:00:21.097Z,19.309
2023-03-28T17:15:22.754Z,19.04
2023-03-28T17:30:24.391Z,18.999
2023-03-28T17:45:26.148Z,19.394
2023-03-28T18:00:30.176Z,19.295
2023-03-28T18:15:33.014Z,19.487
2023-03-28T18:30:34.664Z,19.736
2023-03-28T18:45:36.387Z,20.208
2023-03-28T19:00:38.091Z,19.938
2023-03-28T19:15:39.747Z,19.934
2023-03-28T19:30:41.557Z,21.072
2023-03-28T19:45:43.198Z,21.776
2023-03-28T20:00:44.846Z,23.379
2023-03-28T20:15:46.585Z,22.758
2023-03-28T20:30:48.294Z,22.965
2023-03-28T20:45:49.951Z,22.873
2023-03-28T21:00:51.649Z,22.762
2023-03-28T21:15:53.322Z,22.419
2023-03-28T21:30:54.941Z,21.265
2023-03-28T21:45:56.648Z,21.614
2023-03-28T22:00:58.476Z,22.945
2023-03-28T22:31:02.124Z,22.582
2023-03-28T22:46:04.248Z,22.954
2023-03-28T23:01:05.980Z,22.607
2023-03-28T23:16:07.821Z,22.441
2023-03-28T23:31:09.543Z,22.884
2023-03-28T23:46:11.209Z,19.95
